Dillon, Illinois
Current Conditions -  °F | °C
As of 2:54 PM on Tuesday 27 Jan 2015 (Local Time) from KPIA Reporting Station
Overcast Overcast  
Wind Chill: 27°   Ceiling: 1600
Heat Index: 32°   Visibility: 9mi
Dew Point: 24°   Wind: 5mph
Humidity: 73%   Direction: 350°N
Pressure: 30.21"   Gusts: NA
Location:  40.4817°N, 89.4923°W
Report Text: KPIA 272054Z 35004KT 9SM OVC016 00/M04 A3021 RMK AO2 SLP237 T00001044 53009
Loading
Personal Weather Stations






























Interactive Weather Map New forecast layout! Learn more

10-Day Weather Forecast

Advertisements
Track Severe Weather on mobile